createdAt,value
2018-05-06T00:02:19.351Z,37.17
2018-05-06T00:06:21.871Z,37.40
2018-05-06T00:10:24.365Z,37.45
2018-05-06T00:14:26.841Z,36.66
2018-05-06T00:18:29.327Z,37.88
2018-05-06T00:22:31.812Z,37.70
2018-05-06T00:26:34.808Z,37.47
2018-05-06T00:30:37.324Z,36.94
2018-05-06T00:34:39.821Z,37.05
2018-05-06T00:38:42.342Z,37.49
2018-05-06T00:42:44.865Z,37.50
2018-05-06T00:46:47.357Z,37.13
2018-05-06T00:50:49.824Z,38.11
2018-05-06T00:54:52.312Z,38.35
2018-05-06T00:58:54.812Z,38.47
2018-05-06T01:02:57.314Z,38.77
2018-05-06T01:06:59.801Z,38.86
2018-05-06T01:11:02.286Z,38.74
2018-05-06T01:15:04.753Z,38.90
2018-05-06T01:19:07.299Z,39.33
2018-05-06T01:23:09.764Z,39.07
2018-05-06T01:27:12.259Z,39.67
2018-05-06T01:31:14.745Z,39.18
2018-05-06T01:35:17.198Z,39.34
2018-05-06T01:39:19.720Z,39.39
2018-05-06T01:43:22.176Z,39.68
2018-05-06T01:47:24.725Z,39.46
2018-05-06T01:51:27.204Z,39.35
2018-05-06T01:55:29.707Z,39.03
2018-05-06T01:59:32.199Z,39.33
2018-05-06T02:03:34.668Z,39.33
2018-05-06T02:07:37.174Z,39.36
2018-05-06T02:11:39.655Z,39.59
2018-05-06T02:15:42.117Z,39.66
2018-05-06T02:19:44.624Z,39.91
2018-05-06T02:23:47.151Z,39.99
2018-05-06T02:27:49.640Z,40.16
2018-05-06T02:31:52.131Z,40.16
2018-05-06T02:35:54.608Z,40.11
2018-05-06T02:39:57.107Z,40.01
2018-05-06T02:43:59.677Z,40.07
2018-05-06T02:48:02.164Z,40.85
2018-05-06T02:52:04.649Z,40.86
2018-05-06T02:56:07.158Z,40.98
2018-05-06T03:00:09.644Z,41.26
2018-05-06T03:04:12.150Z,41.32
2018-05-06T03:08:14.616Z,42.08
2018-05-06T03:12:17.093Z,41.89
2018-05-06T03:16:19.585Z,42.31
2018-05-06T03:20:22.107Z,42.52
2018-05-06T03:24:24.597Z,42.30
2018-05-06T03:28:27.078Z,42.12
2018-05-06T03:32:29.576Z,41.90
2018-05-06T03:36:32.031Z,41.96
2018-05-06T03:40:34.542Z,42.45
2018-05-06T03:44:37.004Z,42.56
2018-05-06T03:48:39.488Z,42.87
2018-05-06T03:52:41.980Z,43.21
2018-05-06T03:57:05.006Z,43.32
2018-05-06T04:01:07.527Z,43.47
2018-05-06T04:05:10.043Z,43.62
2018-05-06T04:09:12.554Z,43.28
2018-05-06T04:13:15.041Z,43.48
2018-05-06T04:17:17.535Z,43.55
2018-05-06T04:21:20.102Z,43.43
2018-05-06T04:25:22.518Z,43.56
2018-05-06T04:29:25.007Z,43.57
2018-05-06T04:33:27.495Z,43.47
2018-05-06T04:37:29.973Z,43.97
2018-05-06T04:41:32.477Z,44.27
2018-05-06T04:45:34.988Z,44.54
2018-05-06T04:49:37.434Z,43.98
2018-05-06T04:53:39.943Z,44.55
2018-05-06T04:57:42.445Z,44.11
2018-05-06T05:01:44.907Z,44.35
2018-05-06T05:05:47.397Z,44.09
2018-05-06T05:09:49.938Z,43.79
2018-05-06T05:13:52.457Z,43.96
2018-05-06T05:17:54.954Z,44.15
2018-05-06T05:21:57.420Z,44.02
2018-05-06T05:25:59.911Z,43.84
2018-05-06T05:30:02.401Z,43.27
2018-05-06T05:34:04.879Z,43.22
2018-05-06T05:38:07.363Z,42.88
2018-05-06T05:42:09.821Z,43.21
2018-05-06T05:46:12.320Z,42.91
2018-05-06T05:50:14.776Z,42.82
2018-05-06T05:54:17.284Z,42.64
2018-05-06T05:58:19.766Z,42.21
2018-05-06T06:02:22.304Z,42.62
2018-05-06T06:06:24.837Z,42.87
2018-05-06T06:10:27.323Z,42.14
2018-05-06T06:14:29.809Z,42.15
2018-05-06T06:18:32.309Z,41.70
2018-05-06T06:22:34.798Z,42.43
2018-05-06T06:26:37.308Z,41.24
2018-05-06T06:30:39.780Z,40.98
2018-05-06T06:34:42.269Z,41.92
2018-05-06T06:38:44.772Z,42.87
2018-05-06T06:42:47.276Z,42.63
2018-05-06T06:46:49.796Z,42.65
2018-05-06T06:50:52.280Z,41.86
2018-05-06T06:54:54.771Z,42.46
2018-05-06T06:58:57.253Z,42.75
2018-05-06T07:02:59.816Z,42.62
2018-05-06T07:07:02.250Z,42.53
2018-05-06T07:11:04.736Z,42.05
2018-05-06T07:15:07.216Z,43.27
2018-05-06T07:19:09.734Z,43.01
2018-05-06T07:23:12.217Z,41.83
2018-05-06T07:27:14.715Z,42.39
2018-05-06T07:31:17.232Z,41.85
2018-05-06T07:35:19.722Z,41.32
2018-05-06T07:39:22.213Z,41.34
2018-05-06T07:43:24.713Z,40.98
2018-05-06T07:47:27.202Z,39.96
2018-05-06T07:51:29.720Z,40.03
2018-05-06T07:55:32.207Z,40.03
2018-05-06T07:59:34.700Z,39.67
2018-05-06T08:03:37.188Z,39.29
2018-05-06T08:07:39.671Z,39.63
2018-05-06T08:11:42.155Z,39.68
2018-05-06T08:15:44.631Z,38.98
2018-05-06T08:19:47.130Z,40.31
2018-05-06T08:23:49.599Z,39.25
2018-05-06T08:27:52.101Z,38.31
2018-05-06T08:31:54.566Z,38.04
2018-05-06T08:35:57.058Z,38.44
2018-05-06T08:39:59.532Z,38.50
2018-05-06T08:44:02.019Z,38.01
2018-05-06T08:48:04.503Z,38.02
2018-05-06T08:52:06.985Z,37.78
2018-05-06T08:56:09.513Z,37.65
2018-05-06T09:00:12.014Z,36.80
2018-05-06T09:04:14.509Z,36.92
2018-05-06T09:08:16.997Z,36.00
2018-05-06T09:12:19.523Z,36.97
2018-05-06T09:16:22.008Z,37.94
2018-05-06T09:20:24.579Z,37.29
2018-05-06T09:24:27.029Z,36.80
2018-05-06T09:28:29.527Z,35.51
2018-05-06T09:32:32.044Z,36.93
2018-05-06T09:36:34.631Z,37.10
2018-05-06T09:40:38.040Z,36.80
2018-05-06T09:44:40.524Z,35.76
2018-05-06T09:48:42.998Z,34.69
2018-05-06T09:52:45.474Z,35.90
2018-05-06T09:56:47.986Z,35.29
2018-05-06T10:00:50.449Z,35.93
2018-05-06T10:04:52.937Z,35.62
2018-05-06T10:08:55.441Z,35.52
2018-05-06T10:12:57.930Z,35.45
2018-05-06T10:17:00.387Z,35.28
2018-05-06T10:21:02.879Z,35.27
2018-05-06T10:25:05.382Z,35.25
2018-05-06T10:29:07.880Z,36.10
2018-05-06T10:33:10.383Z,35.08
2018-05-06T10:37:12.844Z,35.48
2018-05-06T10:41:15.335Z,35.64
2018-05-06T10:45:17.820Z,35.47
2018-05-06T10:49:20.488Z,34.93
2018-05-06T10:53:22.819Z,35.40
2018-05-06T10:57:25.344Z,35.11
2018-05-06T11:01:27.830Z,35.14
2018-05-06T11:05:30.313Z,34.49
2018-05-06T11:09:32.771Z,34.79
2018-05-06T11:13:35.362Z,34.15
2018-05-06T11:17:37.846Z,34.46
2018-05-06T11:21:40.360Z,34.23
2018-05-06T11:25:42.879Z,33.61
2018-05-06T11:29:45.365Z,33.63
2018-05-06T11:33:47.960Z,33.52
2018-05-06T11:37:50.407Z,33.46
2018-05-06T11:41:52.884Z,31.97
2018-05-06T11:45:55.376Z,32.52
2018-05-06T11:49:57.875Z,32.37
2018-05-06T11:54:00.367Z,32.20
2018-05-06T11:58:02.839Z,32.01
2018-05-06T12:02:05.328Z,31.81
2018-05-06T12:06:07.835Z,33.06
2018-05-06T12:10:10.339Z,32.05
2018-05-06T12:14:12.829Z,32.23
2018-05-06T12:18:15.329Z,31.75
2018-05-06T12:22:17.820Z,33.19
2018-05-06T12:26:20.333Z,32.20
2018-05-06T12:30:22.819Z,30.43
2018-05-06T12:34:25.315Z,31.19
2018-05-06T12:38:27.795Z,31.37
2018-05-06T12:42:30.290Z,31.46
2018-05-06T12:46:32.777Z,30.18
2018-05-06T12:50:35.262Z,32.09
2018-05-06T12:54:37.739Z,31.13
2018-05-06T12:58:40.233Z,32.20
2018-05-06T13:02:42.715Z,32.56
2018-05-06T13:06:45.205Z,31.38
2018-05-06T13:10:47.667Z,32.07
2018-05-06T13:14:50.143Z,31.77
2018-05-06T13:18:52.616Z,31.83
2018-05-06T13:22:55.102Z,31.69
2018-05-06T13:26:57.580Z,32.81
2018-05-06T13:31:00.078Z,33.35
2018-05-06T13:35:02.563Z,32.21
2018-05-06T13:39:05.835Z,31.08
2018-05-06T13:43:08.354Z,31.97
2018-05-06T13:47:10.841Z,31.66
2018-05-06T13:51:13.315Z,32.18
2018-05-06T13:55:15.795Z,31.86
2018-05-06T13:59:18.289Z,32.35
2018-05-06T14:03:20.775Z,31.94
2018-05-06T14:07:23.262Z,31.96
2018-05-06T14:11:25.840Z,32.27
2018-05-06T14:15:28.350Z,33.05
2018-05-06T14:19:30.954Z,32.07
2018-05-06T14:23:33.459Z,32.63
2018-05-06T14:27:35.943Z,32.35
2018-05-06T14:31:38.450Z,33.66
2018-05-06T14:35:40.917Z,33.17
2018-05-06T14:39:43.448Z,32.92
2018-05-06T14:43:45.954Z,32.61
2018-05-06T14:48:00.185Z,32.64
2018-05-06T14:52:02.673Z,33.13
2018-05-06T14:56:05.165Z,33.42
2018-05-06T15:00:07.659Z,32.95
2018-05-06T15:04:10.150Z,33.28
2018-05-06T15:08:12.626Z,33.21
2018-05-06T15:12:15.144Z,33.58
2018-05-06T15:16:17.657Z,33.73
2018-05-06T15:20:20.157Z,33.42
2018-05-06T15:24:22.625Z,33.86
2018-05-06T15:28:25.108Z,34.91
2018-05-06T15:32:27.592Z,33.68
2018-05-06T15:36:30.099Z,33.74
2018-05-06T15:40:32.616Z,34.28
2018-05-06T15:44:35.086Z,34.11
2018-05-06T15:48:37.617Z,34.14
2018-05-06T15:52:40.082Z,33.54
2018-05-06T15:56:42.628Z,34.66
2018-05-06T16:00:45.116Z,34.41
2018-05-06T16:04:47.603Z,34.49
2018-05-06T16:08:50.110Z,35.43
2018-05-06T16:12:52.575Z,34.22
2018-05-06T16:16:55.072Z,34.74
2018-05-06T16:20:57.542Z,34.84
2018-05-06T16:25:00.037Z,34.39
2018-05-06T16:29:02.517Z,34.45
2018-05-06T16:33:05.045Z,34.68
2018-05-06T16:37:07.556Z,35.04
2018-05-06T16:41:10.053Z,34.62
2018-05-06T16:45:12.540Z,35.84
2018-05-06T16:49:15.060Z,35.37
2018-05-06T16:53:17.550Z,35.83
2018-05-06T16:57:20.087Z,34.95
2018-05-06T17:01:22.495Z,35.51
2018-05-06T17:05:24.981Z,35.35
2018-05-06T17:09:27.468Z,35.01
2018-05-06T17:13:29.954Z,34.98
2018-05-06T17:17:32.434Z,35.43
2018-05-06T17:21:34.936Z,36.22
2018-05-06T17:25:37.425Z,35.57
2018-05-06T17:29:39.911Z,34.59
2018-05-06T17:33:42.402Z,34.73
2018-05-06T17:37:44.875Z,35.15
2018-05-06T17:41:47.371Z,35.32
2018-05-06T17:45:49.865Z,35.44
2018-05-06T17:49:52.367Z,36.08
2018-05-06T17:53:54.851Z,36.57
2018-05-06T17:57:57.343Z,37.26
2018-05-06T18:01:59.801Z,36.69
2018-05-06T18:06:02.301Z,37.12
2018-05-06T18:10:04.797Z,37.21
2018-05-06T18:14:07.254Z,37.59
2018-05-06T18:18:09.742Z,37.20
2018-05-06T18:22:12.228Z,37.45
2018-05-06T18:26:14.702Z,37.40
2018-05-06T18:30:17.190Z,37.74
2018-05-06T18:34:19.677Z,37.44
2018-05-06T18:38:22.157Z,37.17
2018-05-06T18:42:24.651Z,37.46
2018-05-06T18:46:27.139Z,36.97
2018-05-06T18:50:29.646Z,37.33
2018-05-06T18:54:32.132Z,37.94
2018-05-06T18:58:34.620Z,38.04
2018-05-06T19:02:37.127Z,38.88
2018-05-06T19:06:39.629Z,38.30
2018-05-06T19:10:42.278Z,38.63
2018-05-06T19:14:44.769Z,39.07
2018-05-06T19:18:47.246Z,38.95
2018-05-06T19:22:49.737Z,38.52
2018-05-06T19:26:52.221Z,38.95
2018-05-06T19:30:54.919Z,38.44
2018-05-06T19:34:57.438Z,38.87
2018-05-06T19:38:59.999Z,39.34
2018-05-06T19:43:02.486Z,39.54
2018-05-06T19:47:04.931Z,39.85
2018-05-06T19:51:08.417Z,39.81
2018-05-06T19:55:10.922Z,39.48
2018-05-06T19:59:13.754Z,39.82
2018-05-06T20:03:16.311Z,39.65
2018-05-06T20:07:18.816Z,39.66
2018-05-06T20:11:21.275Z,39.69
2018-05-06T20:15:23.756Z,39.81
2018-05-06T20:19:26.255Z,40.01
2018-05-06T20:23:28.747Z,40.34
2018-05-06T20:27:31.231Z,40.80
2018-05-06T20:31:33.757Z,40.29
2018-05-06T20:35:36.206Z,40.52
2018-05-06T20:39:38.687Z,40.26
2018-05-06T20:43:41.216Z,40.54
2018-05-06T20:47:43.668Z,40.68
2018-05-06T20:51:46.138Z,41.12
2018-05-06T20:55:48.734Z,41.22
2018-05-06T20:59:51.201Z,41.18
2018-05-06T21:03:53.738Z,41.54
2018-05-06T21:07:56.208Z,41.36
2018-05-06T21:11:58.718Z,41.37
2018-05-06T21:16:01.241Z,41.60
2018-05-06T21:20:04.108Z,41.27
2018-05-06T21:24:06.723Z,41.46
2018-05-06T21:28:09.201Z,41.68
2018-05-06T21:32:11.714Z,41.87
2018-05-06T21:36:14.200Z,42.04
2018-05-06T21:40:16.676Z,42.13
2018-05-06T21:44:19.178Z,42.26
2018-05-06T21:48:21.735Z,42.23
2018-05-06T21:52:24.380Z,42.46
2018-05-06T21:56:26.803Z,42.44
2018-05-06T22:00:29.418Z,42.15
2018-05-06T22:04:31.915Z,42.24
2018-05-06T22:08:34.392Z,42.32
2018-05-06T22:12:36.854Z,42.50
2018-05-06T22:16:39.369Z,42.67
2018-05-06T22:20:41.831Z,42.47
2018-05-06T22:24:44.382Z,42.99
2018-05-06T22:28:46.876Z,42.95
2018-05-06T22:32:49.357Z,42.81
2018-05-06T22:36:52.681Z,42.28
2018-05-06T22:40:55.142Z,42.97
2018-05-06T22:44:57.667Z,42.68
2018-05-06T22:49:00.144Z,42.83
2018-05-06T22:53:02.630Z,42.93
2018-05-06T22:57:05.107Z,43.17
2018-05-06T23:01:07.599Z,43.26
2018-05-06T23:05:10.054Z,43.30
2018-05-06T23:09:12.537Z,43.34
2018-05-06T23:13:15.036Z,43.53
2018-05-06T23:17:17.495Z,43.78
2018-05-06T23:21:20.003Z,43.70
2018-05-06T23:25:22.542Z,43.65
2018-05-06T23:29:25.022Z,44.20
2018-05-06T23:33:27.476Z,44.29
2018-05-06T23:37:30.100Z,44.49
2018-05-06T23:41:32.558Z,44.41
2018-05-06T23:45:35.192Z,44.59
2018-05-06T23:49:37.765Z,44.82
2018-05-06T23:53:40.298Z,44.78
2018-05-06T23:57:42.878Z,45.29
